METAR Data
IDs: Format: Raw Decoded Include TAF

Data at: 2209 UTC 24 Mar 2019

KCDS 242153Z AUTO VRB03KT 10SM CLR 22/05 A3003 RMK AO2 SLP154 T02220050
KCDS 242053Z AUTO VRB03KT 10SM CLR 21/05 A3004 RMK AO2 SLP159 T02110050 56012
KCDS 241953Z AUTO 05006KT 10SM CLR 21/06 A3004 RMK AO2 SLP161 T02110056
KCDS 241853Z AUTO 06005KT 10SM CLR 19/05 A3005 RMK AO2 SLP165 T01940050
KCDS 241753Z AUTO 02006KT 10SM CLR 18/05 A3007 RMK AO2 SLP171 T01830050 10183 20067 50001
KCDS 241653Z AUTO 03005KT 10SM CLR 17/06 A3009 RMK AO2 SLP178 T01670056
KCDS 241553Z AUTO 03011KT 10SM CLR 15/04 A3007 RMK AO2 SLP171 T01500044
KCDS 241453Z AUTO 02012KT 10SM CLR 13/05 A3007 RMK AO2 SLP171 T01280050 51027
KCDS 241353Z AUTO 33009KT 10SM CLR 09/05 A3005 RMK AO2 SLP166 T00940050
KCDS 241253Z AUTO 35008KT 10SM CLR 07/04 A3001 RMK AO2 SLP154 T00720039
KCDS 241153Z AUTO 35011KT 10SM CLR 08/04 A2998 RMK AO2 SLP140 T00780039 10128 20072 53013
KCDS 241053Z AUTO 35011KT 10SM CLR 08/03 A2997 RMK AO2 SLP134 T00780033
KCDS 240953Z AUTO 24009KT 10SM CLR 10/01 A2994 RMK AO2 SLP124 T01000011
KCDS 240853Z AUTO 23006KT 10SM CLR 09/04 A2994 RMK AO2 SLP124 T00940039 55001
KCDS 240753Z AUTO 17004KT 10SM CLR 11/05 A2994 RMK AO2 SLP122 T01110050
KCDS 240653Z AUTO 11006KT 10SM CLR 11/05 A2994 RMK AO2 SLP126 T01060050
KCDS 240553Z AUTO 11008KT 10SM CLR 13/06 A2994 RMK AO2 SLP125 T01280056 10239 20111 402500100 58000
KCDS 240453Z AUTO 09006KT 10SM CLR 12/04 A2996 RMK AO2 SLP131 T01220044
KCDS 240353Z AUTO 09007KT 10SM CLR 14/04 A2996 RMK AO2 SLP133 T01440039
KCDS 240253Z AUTO 10003KT 10SM CLR 15/03 A2995 RMK AO2 SLP129 T01500033 53018
KCDS 240153Z AUTO 10006KT 10SM CLR 17/03 A2991 RMK AO2 SLP117 T01720033
KCDS 240053Z AUTO 08004KT 10SM CLR 19/01 A2989 RMK AO2 SLP111 T01890011
KCDS 232353Z AUTO 34004KT 10SM CLR 24/00 A2989 RMK AO2 SLP105 T02390000 10250 20200 56004
KCDS 232253Z AUTO 31009KT 10SM CLR 24/M02 A2989 RMK AO2 SLP105 T02391017
KCDS 232153Z AUTO 27014G20KT 10SM CLR 24/M03 A2990 RMK AO2 SLP108 T02441028
KCDS 232053Z AUTO 24009KT 10SM CLR 24/M02 A2990 RMK AO2 SLP107 T02441022 56020
KCDS 231953Z AUTO 26011KT 10SM CLR 23/M03 A2992 RMK AO2 SLP112 T02331028
KCDS 231853Z AUTO VRB06KT 10SM CLR 22/03 A2994 RMK AO2 SLP119 T02170028
KCDS 231753Z AUTO 29010KT 10SM CLR 20/04 A2996 RMK AO2 SLP130 T02000039 10200 20100 56008
KCDS 231653Z AUTO 27011KT 10SM CLR 19/06 A2997 RMK AO2 SLP130 T01940056
KCDS 231553Z AUTO 28008KT 10SM CLR 17/08 A2998 RMK AO2 SLP136 T01670083
KCDS 231453Z AUTO VRB04KT 10SM CLR 14/10 A2999 RMK AO2 SLP141 T01390100 53012
KCDS 231353Z AUTO 11008KT 10SM CLR 11/09 A2997 RMK AO2 SLP136 T01110089
KCDS 231253Z AUTO 10007KT 10SM CLR 10/08 A2996 RMK AO2 SLP133 T01000083
KCDS 231232Z AUTO 10008KT 10SM FEW025 11/08 A2995 RMK AO2 T01060083
KCDS 231153Z AUTO 10010KT 10SM OVC027 12/09 A2995 RMK AO2 SLP128 T01170089 10172 20117 53001
KCDS 231053Z AUTO 08009G17KT 10SM BKN024 OVC030 12/09 A2994 RMK AO2 SLP124 T01170089